sensor_id;sensor_type;location;lat;lon;timestamp;P1;durP1;ratioP1;P2;durP2;ratioP2
20379;SDS011;10349;48.666;8.948;2023-08-31T00:00:29;2.70;;;2.50;;
20379;SDS011;10349;48.666;8.948;2023-08-31T00:02:56;2.60;;;2.40;;
20379;SDS011;10349;48.666;8.948;2023-08-31T00:05:23;2.43;;;2.13;;
20379;SDS011;10349;48.666;8.948;2023-08-31T00:07:50;3.23;;;2.40;;
20379;SDS011;10349;48.666;8.948;2023-08-31T00:10:16;4.03;;;2.63;;
20379;SDS011;10349;48.666;8.948;2023-08-31T00:12:43;2.43;;;2.20;;
20379;SDS011;10349;48.666;8.948;2023-08-31T00:15:09;2.47;;;2.27;;
20379;SDS011;10349;48.666;8.948;2023-08-31T00:17:35;2.57;;;2.37;;
20379;SDS011;10349;48.666;8.948;2023-08-31T00:20:01;3.10;;;2.80;;
20379;SDS011;10349;48.666;8.948;2023-08-31T00:22:31;1.83;;;1.73;;
20379;SDS011;10349;48.666;8.948;2023-08-31T00:24:57;2.20;;;2.10;;
20379;SDS011;10349;48.666;8.948;2023-08-31T00:27:23;2.30;;;2.03;;
20379;SDS011;10349;48.666;8.948;2023-08-31T00:29:49;2.17;;;2.07;;
20379;SDS011;10349;48.666;8.948;2023-08-31T00:32:16;3.67;;;2.47;;
20379;SDS011;10349;48.666;8.948;2023-08-31T00:34:44;2.40;;;2.20;;
20379;SDS011;10349;48.666;8.948;2023-08-31T00:37:10;3.20;;;1.93;;
20379;SDS011;10349;48.666;8.948;2023-08-31T00:39:35;2.70;;;2.47;;
20379;SDS011;10349;48.666;8.948;2023-08-31T00:42:01;4.03;;;2.40;;
20379;SDS011;10349;48.666;8.948;2023-08-31T00:44:27;3.33;;;2.30;;
20379;SDS011;10349;48.666;8.948;2023-08-31T00:46:53;4.53;;;2.83;;
20379;SDS011;10349;48.666;8.948;2023-08-31T00:49:20;2.40;;;2.20;;
20379;SDS011;10349;48.666;8.948;2023-08-31T00:51:45;2.40;;;2.20;;
20379;SDS011;10349;48.666;8.948;2023-08-31T00:54:16;2.60;;;2.40;;
20379;SDS011;10349;48.666;8.948;2023-08-31T00:56:43;2.50;;;2.30;;
20379;SDS011;10349;48.666;8.948;2023-08-31T00:59:08;2.50;;;2.30;;
20379;SDS011;10349;48.666;8.948;2023-08-31T01:01:47;2.30;;;2.20;;
20379;SDS011;10349;48.666;8.948;2023-08-31T01:04:36;2.43;;;2.23;;
20379;SDS011;10349;48.666;8.948;2023-08-31T01:07:32;2.83;;;2.50;;
20379;SDS011;10349;48.666;8.948;2023-08-31T01:10:21;2.87;;;2.67;;
20379;SDS011;10349;48.666;8.948;2023-08-31T01:15:39;3.03;;;2.83;;
20379;SDS011;10349;48.666;8.948;2023-08-31T01:18:08;2.53;;;2.33;;
20379;SDS011;10349;48.666;8.948;2023-08-31T01:20:38;4.10;;;2.50;;
20379;SDS011;10349;48.666;8.948;2023-08-31T01:23:27;3.20;;;2.80;;
20379;SDS011;10349;48.666;8.948;2023-08-31T01:26:00;2.80;;;2.60;;
20379;SDS011;10349;48.666;8.948;2023-08-31T01:28:27;2.70;;;2.50;;
20379;SDS011;10349;48.666;8.948;2023-08-31T01:30:52;3.17;;;2.90;;
20379;SDS011;10349;48.666;8.948;2023-08-31T01:33:18;2.80;;;2.60;;
20379;SDS011;10349;48.666;8.948;2023-08-31T01:35:46;2.70;;;2.50;;
20379;SDS011;10349;48.666;8.948;2023-08-31T01:38:16;3.00;;;2.80;;
20379;SDS011;10349;48.666;8.948;2023-08-31T01:40:54;3.40;;;2.70;;
20379;SDS011;10349;48.666;8.948;2023-08-31T01:43:32;3.17;;;2.97;;
20379;SDS011;10349;48.666;8.948;2023-08-31T01:46:02;2.30;;;2.10;;
20379;SDS011;10349;48.666;8.948;2023-08-31T01:48:28;3.63;;;3.33;;
20379;SDS011;10349;48.666;8.948;2023-08-31T01:50:53;7.20;;;2.70;;
20379;SDS011;10349;48.666;8.948;2023-08-31T01:53:19;3.17;;;2.97;;
20379;SDS011;10349;48.666;8.948;2023-08-31T01:55:44;2.53;;;2.30;;
20379;SDS011;10349;48.666;8.948;2023-08-31T01:58:10;3.13;;;2.93;;
20379;SDS011;10349;48.666;8.948;2023-08-31T02:00:36;3.13;;;2.93;;
20379;SDS011;10349;48.666;8.948;2023-08-31T02:03:03;4.13;;;3.10;;
20379;SDS011;10349;48.666;8.948;2023-08-31T02:05:33;3.33;;;2.60;;
20379;SDS011;10349;48.666;8.948;2023-08-31T02:07:58;3.10;;;2.80;;
20379;SDS011;10349;48.666;8.948;2023-08-31T02:10:26;3.10;;;2.80;;
20379;SDS011;10349;48.666;8.948;2023-08-31T02:12:52;2.57;;;2.37;;
20379;SDS011;10349;48.666;8.948;2023-08-31T02:15:17;3.70;;;3.40;;
20379;SDS011;10349;48.666;8.948;2023-08-31T02:17:43;3.13;;;2.90;;
20379;SDS011;10349;48.666;8.948;2023-08-31T02:20:10;5.13;;;3.27;;
20379;SDS011;10349;48.666;8.948;2023-08-31T02:22:36;3.63;;;3.33;;
20379;SDS011;10349;48.666;8.948;2023-08-31T02:25:02;3.27;;;2.97;;
20379;SDS011;10349;48.666;8.948;2023-08-31T02:27:28;2.63;;;2.40;;
20379;SDS011;10349;48.666;8.948;2023-08-31T02:29:53;3.07;;;2.87;;
20379;SDS011;10349;48.666;8.948;2023-08-31T02:32:19;3.27;;;2.97;;
20379;SDS011;10349;48.666;8.948;2023-08-31T02:34:45;2.60;;;2.50;;
20379;SDS011;10349;48.666;8.948;2023-08-31T02:37:11;3.00;;;2.80;;
20379;SDS011;10349;48.666;8.948;2023-08-31T02:39:36;3.10;;;2.90;;
20379;SDS011;10349;48.666;8.948;2023-08-31T02:42:02;3.17;;;2.73;;
20379;SDS011;10349;48.666;8.948;2023-08-31T02:44:30;4.07;;;2.63;;
20379;SDS011;10349;48.666;8.948;2023-08-31T02:46:56;2.37;;;2.27;;
20379;SDS011;10349;48.666;8.948;2023-08-31T02:49:22;2.90;;;2.70;;
20379;SDS011;10349;48.666;8.948;2023-08-31T02:51:48;2.60;;;2.40;;
20379;SDS011;10349;48.666;8.948;2023-08-31T02:54:14;3.60;;;3.30;;
20379;SDS011;10349;48.666;8.948;2023-08-31T02:56:40;3.00;;;2.80;;
20379;SDS011;10349;48.666;8.948;2023-08-31T02:59:06;4.70;;;3.20;;
20379;SDS011;10349;48.666;8.948;2023-08-31T03:01:33;4.20;;;2.73;;
20379;SDS011;10349;48.666;8.948;2023-08-31T03:03:58;2.90;;;2.70;;
20379;SDS011;10349;48.666;8.948;2023-08-31T03:06:25;3.80;;;3.50;;
20379;SDS011;10349;48.666;8.948;2023-08-31T03:08:51;4.37;;;3.20;;
20379;SDS011;10349;48.666;8.948;2023-08-31T03:11:17;4.03;;;2.70;;
20379;SDS011;10349;48.666;8.948;2023-08-31T03:13:43;3.33;;;2.73;;
20379;SDS011;10349;48.666;8.948;2023-08-31T03:16:10;4.80;;;3.60;;
20379;SDS011;10349;48.666;8.948;2023-08-31T03:18:36;3.40;;;3.10;;
20379;SDS011;10349;48.666;8.948;2023-08-31T03:21:01;2.80;;;2.60;;
20379;SDS011;10349;48.666;8.948;2023-08-31T03:23:28;2.97;;;2.67;;
20379;SDS011;10349;48.666;8.948;2023-08-31T03:25:56;3.60;;;3.10;;
20379;SDS011;10349;48.666;8.948;2023-08-31T03:28:25;3.60;;;3.30;;
20379;SDS011;10349;48.666;8.948;2023-08-31T03:30:57;3.67;;;3.20;;
20379;SDS011;10349;48.666;8.948;2023-08-31T03:33:23;3.17;;;2.97;;
20379;SDS011;10349;48.666;8.948;2023-08-31T03:35:49;3.60;;;3.30;;
20379;SDS011;10349;48.666;8.948;2023-08-31T03:38:14;2.57;;;2.40;;
20379;SDS011;10349;48.666;8.948;2023-08-31T03:40:40;3.57;;;3.27;;
20379;SDS011;10349;48.666;8.948;2023-08-31T03:43:06;3.50;;;3.20;;
20379;SDS011;10349;48.666;8.948;2023-08-31T03:45:32;10.33;;;4.87;;
20379;SDS011;10349;48.666;8.948;2023-08-31T03:47:57;4.80;;;3.47;;
20379;SDS011;10349;48.666;8.948;2023-08-31T03:50:24;3.50;;;3.20;;
20379;SDS011;10349;48.666;8.948;2023-08-31T03:52:50;3.67;;;3.37;;
20379;SDS011;10349;48.666;8.948;2023-08-31T03:55:16;3.33;;;3.13;;
20379;SDS011;10349;48.666;8.948;2023-08-31T03:57:41;3.40;;;3.07;;
20379;SDS011;10349;48.666;8.948;2023-08-31T04:00:15;4.30;;;3.70;;
20379;SDS011;10349;48.666;8.948;2023-08-31T04:02:44;3.20;;;3.00;;
20379;SDS011;10349;48.666;8.948;2023-08-31T04:05:12;3.90;;;3.53;;
20379;SDS011;10349;48.666;8.948;2023-08-31T04:07:43;7.33;;;4.17;;
20379;SDS011;10349;48.666;8.948;2023-08-31T04:10:09;3.57;;;3.27;;
20379;SDS011;10349;48.666;8.948;2023-08-31T04:12:35;7.00;;;4.63;;
20379;SDS011;10349;48.666;8.948;2023-08-31T04:15:00;5.03;;;3.50;;
20379;SDS011;10349;48.666;8.948;2023-08-31T04:17:28;4.00;;;3.70;;
20379;SDS011;10349;48.666;8.948;2023-08-31T04:19:56;3.50;;;3.30;;
20379;SDS011;10349;48.666;8.948;2023-08-31T04:22:22;4.23;;;3.90;;
20379;SDS011;10349;48.666;8.948;2023-08-31T04:24:48;3.27;;;2.97;;
20379;SDS011;10349;48.666;8.948;2023-08-31T04:27:13;3.37;;;3.07;;
20379;SDS011;10349;48.666;8.948;2023-08-31T04:29:39;4.47;;;3.67;;
20379;SDS011;10349;48.666;8.948;2023-08-31T04:32:05;3.40;;;3.13;;
20379;SDS011;10349;48.666;8.948;2023-08-31T04:34:30;3.03;;;2.83;;
20379;SDS011;10349;48.666;8.948;2023-08-31T04:36:57;4.33;;;4.00;;
20379;SDS011;10349;48.666;8.948;2023-08-31T04:39:23;3.40;;;3.20;;
20379;SDS011;10349;48.666;8.948;2023-08-31T04:41:49;4.80;;;3.47;;
20379;SDS011;10349;48.666;8.948;2023-08-31T04:44:14;5.13;;;3.40;;
20379;SDS011;10349;48.666;8.948;2023-08-31T04:46:40;3.07;;;2.87;;
20379;SDS011;10349;48.666;8.948;2023-08-31T04:49:06;7.03;;;3.00;;
20379;SDS011;10349;48.666;8.948;2023-08-31T04:51:34;5.73;;;3.87;;
20379;SDS011;10349;48.666;8.948;2023-08-31T04:54:03;3.93;;;3.07;;
20379;SDS011;10349;48.666;8.948;2023-08-31T04:56:30;3.40;;;3.10;;
20379;SDS011;10349;48.666;8.948;2023-08-31T04:59:00;6.20;;;2.83;;
20379;SDS011;10349;48.666;8.948;2023-08-31T05:01:26;3.73;;;3.33;;
20379;SDS011;10349;48.666;8.948;2023-08-31T05:03:52;4.77;;;4.07;;
20379;SDS011;10349;48.666;8.948;2023-08-31T05:06:17;4.60;;;3.90;;
20379;SDS011;10349;48.666;8.948;2023-08-31T05:08:43;2.97;;;2.77;;
20379;SDS011;10349;48.666;8.948;2023-08-31T05:11:09;3.40;;;3.10;;
20379;SDS011;10349;48.666;8.948;2023-08-31T05:13:36;3.87;;;2.80;;
20379;SDS011;10349;48.666;8.948;2023-08-31T05:16:03;3.60;;;2.80;;
20379;SDS011;10349;48.666;8.948;2023-08-31T05:18:28;2.93;;;2.70;;
20379;SDS011;10349;48.666;8.948;2023-08-31T05:20:55;5.43;;;3.43;;
20379;SDS011;10349;48.666;8.948;2023-08-31T05:23:21;3.27;;;2.97;;
20379;SDS011;10349;48.666;8.948;2023-08-31T05:25:47;3.73;;;3.43;;
20379;SDS011;10349;48.666;8.948;2023-08-31T05:28:12;4.03;;;3.67;;
20379;SDS011;10349;48.666;8.948;2023-08-31T05:30:47;4.00;;;3.60;;
20379;SDS011;10349;48.666;8.948;2023-08-31T05:33:15;4.13;;;3.53;;
20379;SDS011;10349;48.666;8.948;2023-08-31T05:35:40;3.73;;;3.43;;
20379;SDS011;10349;48.666;8.948;2023-08-31T05:38:06;4.43;;;4.00;;
20379;SDS011;10349;48.666;8.948;2023-08-31T05:40:33;2.93;;;2.50;;
20379;SDS011;10349;48.666;8.948;2023-08-31T05:42:59;6.57;;;3.57;;
20379;SDS011;10349;48.666;8.948;2023-08-31T05:45:26;3.67;;;3.37;;
20379;SDS011;10349;48.666;8.948;2023-08-31T05:47:51;3.43;;;3.13;;
20379;SDS011;10349;48.666;8.948;2023-08-31T05:50:17;7.57;;;3.80;;
20379;SDS011;10349;48.666;8.948;2023-08-31T05:52:43;7.30;;;4.00;;
20379;SDS011;10349;48.666;8.948;2023-08-31T05:55:09;3.30;;;3.00;;
20379;SDS011;10349;48.666;8.948;2023-08-31T05:57:36;5.20;;;4.57;;
20379;SDS011;10349;48.666;8.948;2023-08-31T06:00:03;5.40;;;4.40;;
20379;SDS011;10349;48.666;8.948;2023-08-31T06:02:37;5.60;;;3.67;;
20379;SDS011;10349;48.666;8.948;2023-08-31T06:05:03;4.77;;;4.10;;
20379;SDS011;10349;48.666;8.948;2023-08-31T06:07:29;4.87;;;4.33;;
20379;SDS011;10349;48.666;8.948;2023-08-31T06:09:55;4.30;;;3.93;;
20379;SDS011;10349;48.666;8.948;2023-08-31T06:12:21;6.60;;;4.07;;
20379;SDS011;10349;48.666;8.948;2023-08-31T06:14:47;4.43;;;4.03;;
20379;SDS011;10349;48.666;8.948;2023-08-31T06:17:13;4.37;;;3.97;;
20379;SDS011;10349;48.666;8.948;2023-08-31T06:19:40;5.50;;;4.23;;
20379;SDS011;10349;48.666;8.948;2023-08-31T06:22:06;4.10;;;3.80;;
20379;SDS011;10349;48.666;8.948;2023-08-31T06:24:32;4.20;;;3.90;;
20379;SDS011;10349;48.666;8.948;2023-08-31T06:26:59;4.10;;;3.73;;
20379;SDS011;10349;48.666;8.948;2023-08-31T06:29:25;6.70;;;3.70;;
20379;SDS011;10349;48.666;8.948;2023-08-31T06:31:51;5.13;;;3.40;;
20379;SDS011;10349;48.666;8.948;2023-08-31T06:34:17;4.63;;;4.10;;
20379;SDS011;10349;48.666;8.948;2023-08-31T06:36:42;4.17;;;3.87;;
20379;SDS011;10349;48.666;8.948;2023-08-31T06:39:09;4.13;;;3.83;;
20379;SDS011;10349;48.666;8.948;2023-08-31T06:41:36;3.73;;;3.47;;
20379;SDS011;10349;48.666;8.948;2023-08-31T06:44:02;5.80;;;4.33;;
20379;SDS011;10349;48.666;8.948;2023-08-31T06:46:30;4.00;;;3.70;;
20379;SDS011;10349;48.666;8.948;2023-08-31T06:49:03;4.20;;;3.77;;
20379;SDS011;10349;48.666;8.948;2023-08-31T06:51:32;4.40;;;4.10;;
20379;SDS011;10349;48.666;8.948;2023-08-31T06:53:58;4.03;;;3.17;;
20379;SDS011;10349;48.666;8.948;2023-08-31T06:56:31;3.70;;;3.40;;
20379;SDS011;10349;48.666;8.948;2023-08-31T06:58:59;5.13;;;3.20;;
20379;SDS011;10349;48.666;8.948;2023-08-31T07:01:24;4.50;;;2.70;;
20379;SDS011;10349;48.666;8.948;2023-08-31T07:03:52;3.30;;;3.00;;
20379;SDS011;10349;48.666;8.948;2023-08-31T07:06:17;3.10;;;2.53;;
20379;SDS011;10349;48.666;8.948;2023-08-31T07:08:43;5.43;;;2.73;;
20379;SDS011;10349;48.666;8.948;2023-08-31T07:11:10;3.10;;;2.70;;
20379;SDS011;10349;48.666;8.948;2023-08-31T07:13:36;3.53;;;3.23;;
20379;SDS011;10349;48.666;8.948;2023-08-31T07:16:02;3.20;;;3.00;;
20379;SDS011;10349;48.666;8.948;2023-08-31T07:18:30;3.13;;;2.93;;
20379;SDS011;10349;48.666;8.948;2023-08-31T07:20:56;3.30;;;3.10;;
20379;SDS011;10349;48.666;8.948;2023-08-31T07:23:22;3.43;;;3.07;;
20379;SDS011;10349;48.666;8.948;2023-08-31T07:25:49;5.53;;;3.23;;
20379;SDS011;10349;48.666;8.948;2023-08-31T07:28:14;4.93;;;2.87;;
20379;SDS011;10349;48.666;8.948;2023-08-31T07:30:40;4.30;;;2.83;;
20379;SDS011;10349;48.666;8.948;2023-08-31T07:33:07;3.10;;;2.90;;
20379;SDS011;10349;48.666;8.948;2023-08-31T07:35:33;3.20;;;2.90;;
20379;SDS011;10349;48.666;8.948;2023-08-31T07:37:59;5.43;;;2.90;;
20379;SDS011;10349;48.666;8.948;2023-08-31T07:40:24;3.77;;;2.87;;
20379;SDS011;10349;48.666;8.948;2023-08-31T07:42:50;2.37;;;2.27;;
20379;SDS011;10349;48.666;8.948;2023-08-31T07:45:16;3.00;;;2.53;;
20379;SDS011;10349;48.666;8.948;2023-08-31T07:47:42;3.57;;;1.90;;
20379;SDS011;10349;48.666;8.948;2023-08-31T07:50:08;3.80;;;2.77;;
20379;SDS011;10349;48.666;8.948;2023-08-31T07:52:34;3.77;;;2.73;;
20379;SDS011;10349;48.666;8.948;2023-08-31T07:55:00;3.00;;;2.80;;
20379;SDS011;10349;48.666;8.948;2023-08-31T07:57:26;2.73;;;2.53;;
20379;SDS011;10349;48.666;8.948;2023-08-31T07:59:52;4.50;;;1.97;;
20379;SDS011;10349;48.666;8.948;2023-08-31T08:02:17;2.70;;;1.90;;
20379;SDS011;10349;48.666;8.948;2023-08-31T08:04:45;3.00;;;1.90;;
20379;SDS011;10349;48.666;8.948;2023-08-31T08:07:11;2.17;;;1.97;;
20379;SDS011;10349;48.666;8.948;2023-08-31T08:09:38;4.63;;;2.70;;
20379;SDS011;10349;48.666;8.948;2023-08-31T08:12:04;5.93;;;2.10;;
20379;SDS011;10349;48.666;8.948;2023-08-31T08:14:30;2.30;;;2.00;;
20379;SDS011;10349;48.666;8.948;2023-08-31T08:16:55;2.63;;;1.70;;
20379;SDS011;10349;48.666;8.948;2023-08-31T08:19:22;2.33;;;2.10;;
20379;SDS011;10349;48.666;8.948;2023-08-31T08:21:48;2.43;;;1.77;;
20379;SDS011;10349;48.666;8.948;2023-08-31T08:24:15;2.13;;;1.93;;
20379;SDS011;10349;48.666;8.948;2023-08-31T08:26:40;5.73;;;2.57;;
20379;SDS011;10349;48.666;8.948;2023-08-31T08:29:07;3.10;;;2.30;;
20379;SDS011;10349;48.666;8.948;2023-08-31T08:31:33;2.37;;;2.00;;
20379;SDS011;10349;48.666;8.948;2023-08-31T08:33:58;3.97;;;1.80;;
20379;SDS011;10349;48.666;8.948;2023-08-31T08:36:26;2.13;;;1.63;;
20379;SDS011;10349;48.666;8.948;2023-08-31T08:38:52;2.90;;;2.13;;
20379;SDS011;10349;48.666;8.948;2023-08-31T08:41:19;1.90;;;1.80;;
20379;SDS011;10349;48.666;8.948;2023-08-31T08:43:50;2.33;;;1.80;;
20379;SDS011;10349;48.666;8.948;2023-08-31T08:46:17;1.83;;;1.60;;
20379;SDS011;10349;48.666;8.948;2023-08-31T08:48:43;2.53;;;2.10;;
20379;SDS011;10349;48.666;8.948;2023-08-31T08:51:10;2.20;;;2.00;;
20379;SDS011;10349;48.666;8.948;2023-08-31T08:53:37;2.00;;;1.90;;
20379;SDS011;10349;48.666;8.948;2023-08-31T08:56:06;3.10;;;1.60;;
20379;SDS011;10349;48.666;8.948;2023-08-31T08:58:31;1.53;;;1.43;;
20379;SDS011;10349;48.666;8.948;2023-08-31T09:00:57;3.60;;;2.37;;
20379;SDS011;10349;48.666;8.948;2023-08-31T09:03:24;2.07;;;1.87;;
20379;SDS011;10349;48.666;8.948;2023-08-31T09:05:50;1.73;;;1.63;;
20379;SDS011;10349;48.666;8.948;2023-08-31T09:08:25;2.67;;;1.93;;
20379;SDS011;10349;48.666;8.948;2023-08-31T09:10:51;3.43;;;3.13;;
20379;SDS011;10349;48.666;8.948;2023-08-31T09:13:18;4.33;;;1.90;;
20379;SDS011;10349;48.666;8.948;2023-08-31T09:15:44;1.73;;;1.37;;
20379;SDS011;10349;48.666;8.948;2023-08-31T09:20:54;2.63;;;2.43;;
20379;SDS011;10349;48.666;8.948;2023-08-31T09:23:24;3.87;;;1.77;;
20379;SDS011;10349;48.666;8.948;2023-08-31T09:25:51;2.50;;;1.90;;
20379;SDS011;10349;48.666;8.948;2023-08-31T09:28:26;1.50;;;1.40;;
20379;SDS011;10349;48.666;8.948;2023-08-31T09:30:52;3.47;;;2.73;;
20379;SDS011;10349;48.666;8.948;2023-08-31T09:33:28;2.60;;;1.87;;
20379;SDS011;10349;48.666;8.948;2023-08-31T09:35:58;4.17;;;1.77;;
20379;SDS011;10349;48.666;8.948;2023-08-31T09:38:26;2.60;;;1.47;;
20379;SDS011;10349;48.666;8.948;2023-08-31T09:40:52;1.93;;;1.70;;
20379;SDS011;10349;48.666;8.948;2023-08-31T09:43:32;2.33;;;1.77;;
20379;SDS011;10349;48.666;8.948;2023-08-31T09:46:01;7.33;;;2.40;;
20379;SDS011;10349;48.666;8.948;2023-08-31T09:48:29;3.10;;;1.83;;
20379;SDS011;10349;48.666;8.948;2023-08-31T09:50:56;2.23;;;2.03;;
20379;SDS011;10349;48.666;8.948;2023-08-31T09:53:24;3.40;;;2.13;;
20379;SDS011;10349;48.666;8.948;2023-08-31T09:55:51;2.27;;;1.40;;
20379;SDS011;10349;48.666;8.948;2023-08-31T09:58:19;2.20;;;2.00;;
20379;SDS011;10349;48.666;8.948;2023-08-31T10:00:46;2.10;;;1.93;;
20379;SDS011;10349;48.666;8.948;2023-08-31T10:03:13;1.63;;;1.53;;
20379;SDS011;10349;48.666;8.948;2023-08-31T10:05:40;2.43;;;2.23;;
20379;SDS011;10349;48.666;8.948;2023-08-31T10:08:10;4.30;;;2.03;;
20379;SDS011;10349;48.666;8.948;2023-08-31T10:10:37;3.70;;;2.13;;
20379;SDS011;10349;48.666;8.948;2023-08-31T10:13:07;2.40;;;1.97;;
20379;SDS011;10349;48.666;8.948;2023-08-31T10:15:36;5.43;;;1.90;;
20379;SDS011;10349;48.666;8.948;2023-08-31T10:18:05;5.77;;;2.33;;
20379;SDS011;10349;48.666;8.948;2023-08-31T10:20:32;2.03;;;1.90;;
20379;SDS011;10349;48.666;8.948;2023-08-31T10:23:05;4.67;;;2.00;;
20379;SDS011;10349;48.666;8.948;2023-08-31T10:28:17;4.23;;;1.87;;
20379;SDS011;10349;48.666;8.948;2023-08-31T10:33:33;1.50;;;1.40;;
20379;SDS011;10349;48.666;8.948;2023-08-31T10:36:50;2.03;;;1.60;;
20379;SDS011;10349;48.666;8.948;2023-08-31T10:39:16;4.93;;;1.90;;
20379;SDS011;10349;48.666;8.948;2023-08-31T10:41:57;3.53;;;2.50;;
20379;SDS011;10349;48.666;8.948;2023-08-31T10:44:31;2.20;;;2.10;;
20379;SDS011;10349;48.666;8.948;2023-08-31T10:47:03;3.13;;;1.70;;
20379;SDS011;10349;48.666;8.948;2023-08-31T10:49:29;2.50;;;1.60;;
20379;SDS011;10349;48.666;8.948;2023-08-31T10:52:14;2.23;;;1.60;;
20379;SDS011;10349;48.666;8.948;2023-08-31T10:54:45;1.67;;;1.47;;
20379;SDS011;10349;48.666;8.948;2023-08-31T10:57:13;1.83;;;1.57;;
20379;SDS011;10349;48.666;8.948;2023-08-31T10:59:50;2.03;;;1.70;;
20379;SDS011;10349;48.666;8.948;2023-08-31T11:05:13;7.63;;;1.70;;
20379;SDS011;10349;48.666;8.948;2023-08-31T11:07:46;1.97;;;1.77;;
20379;SDS011;10349;48.666;8.948;2023-08-31T11:10:17;4.97;;;2.23;;
20379;SDS011;10349;48.666;8.948;2023-08-31T11:12:52;2.20;;;1.80;;
20379;SDS011;10349;48.666;8.948;2023-08-31T11:15:23;2.50;;;2.30;;
20379;SDS011;10349;48.666;8.948;2023-08-31T11:17:50;1.50;;;1.23;;
20379;SDS011;10349;48.666;8.948;2023-08-31T11:20:17;4.63;;;1.87;;
20379;SDS011;10349;48.666;8.948;2023-08-31T11:22:48;3.03;;;1.93;;
20379;SDS011;10349;48.666;8.948;2023-08-31T11:25:15;3.53;;;1.80;;
20379;SDS011;10349;48.666;8.948;2023-08-31T11:27:53;1.87;;;1.67;;
20379;SDS011;10349;48.666;8.948;2023-08-31T11:30:20;2.30;;;1.90;;
20379;SDS011;10349;48.666;8.948;2023-08-31T11:32:46;1.40;;;1.30;;
20379;SDS011;10349;48.666;8.948;2023-08-31T11:35:13;2.30;;;1.80;;
20379;SDS011;10349;48.666;8.948;2023-08-31T11:37:44;1.80;;;1.70;;
20379;SDS011;10349;48.666;8.948;2023-08-31T11:40:20;2.60;;;1.90;;
20379;SDS011;10349;48.666;8.948;2023-08-31T11:42:47;3.03;;;2.30;;
20379;SDS011;10349;48.666;8.948;2023-08-31T11:45:17;5.93;;;2.03;;
20379;SDS011;10349;48.666;8.948;2023-08-31T11:47:44;2.00;;;1.73;;
20379;SDS011;10349;48.666;8.948;2023-08-31T11:50:10;1.73;;;1.47;;
20379;SDS011;10349;48.666;8.948;2023-08-31T11:52:38;1.60;;;1.50;;
20379;SDS011;10349;48.666;8.948;2023-08-31T11:55:09;1.70;;;1.60;;
20379;SDS011;10349;48.666;8.948;2023-08-31T11:57:37;4.17;;;2.17;;
20379;SDS011;10349;48.666;8.948;2023-08-31T12:00:05;2.80;;;2.30;;
20379;SDS011;10349;48.666;8.948;2023-08-31T12:02:35;2.60;;;1.60;;
20379;SDS011;10349;48.666;8.948;2023-08-31T12:05:01;1.77;;;1.67;;
20379;SDS011;10349;48.666;8.948;2023-08-31T12:07:27;1.97;;;1.70;;
20379;SDS011;10349;48.666;8.948;2023-08-31T12:09:52;1.67;;;1.57;;
20379;SDS011;10349;48.666;8.948;2023-08-31T12:12:22;4.97;;;2.30;;
20379;SDS011;10349;48.666;8.948;2023-08-31T12:14:52;5.60;;;2.13;;
20379;SDS011;10349;48.666;8.948;2023-08-31T12:17:18;2.10;;;2.00;;
20379;SDS011;10349;48.666;8.948;2023-08-31T12:19:44;2.60;;;1.73;;
20379;SDS011;10349;48.666;8.948;2023-08-31T12:22:09;2.27;;;2.03;;
20379;SDS011;10349;48.666;8.948;2023-08-31T12:24:42;2.07;;;1.80;;
20379;SDS011;10349;48.666;8.948;2023-08-31T12:27:08;3.13;;;1.37;;
20379;SDS011;10349;48.666;8.948;2023-08-31T12:29:36;2.03;;;1.83;;
20379;SDS011;10349;48.666;8.948;2023-08-31T12:32:01;2.53;;;2.27;;
20379;SDS011;10349;48.666;8.948;2023-08-31T12:34:28;2.33;;;2.13;;
20379;SDS011;10349;48.666;8.948;2023-08-31T12:36:58;2.30;;;1.70;;
20379;SDS011;10349;48.666;8.948;2023-08-31T12:39:26;1.60;;;1.50;;
20379;SDS011;10349;48.666;8.948;2023-08-31T12:41:52;5.53;;;2.03;;
20379;SDS011;10349;48.666;8.948;2023-08-31T12:44:17;1.73;;;1.63;;
20379;SDS011;10349;48.666;8.948;2023-08-31T12:46:43;5.23;;;2.73;;
20379;SDS011;10349;48.666;8.948;2023-08-31T12:49:08;2.43;;;2.20;;
20379;SDS011;10349;48.666;8.948;2023-08-31T12:51:34;1.73;;;1.63;;
20379;SDS011;10349;48.666;8.948;2023-08-31T12:54:01;1.70;;;1.53;;
20379;SDS011;10349;48.666;8.948;2023-08-31T12:56:26;5.93;;;2.50;;
20379;SDS011;10349;48.666;8.948;2023-08-31T12:58:53;4.10;;;2.23;;
20379;SDS011;10349;48.666;8.948;2023-08-31T13:01:19;2.00;;;1.77;;
20379;SDS011;10349;48.666;8.948;2023-08-31T13:03:46;2.43;;;1.70;;
20379;SDS011;10349;48.666;8.948;2023-08-31T13:06:12;2.20;;;1.60;;
20379;SDS011;10349;48.666;8.948;2023-08-31T13:08:39;2.23;;;2.03;;
20379;SDS011;10349;48.666;8.948;2023-08-31T13:11:05;1.77;;;1.67;;
20379;SDS011;10349;48.666;8.948;2023-08-31T13:13:33;2.20;;;2.00;;
20379;SDS011;10349;48.666;8.948;2023-08-31T13:15:58;4.60;;;2.10;;
20379;SDS011;10349;48.666;8.948;2023-08-31T13:18:24;2.87;;;2.00;;
20379;SDS011;10349;48.666;8.948;2023-08-31T13:20:54;3.93;;;1.97;;
20379;SDS011;10349;48.666;8.948;2023-08-31T13:23:23;2.53;;;2.33;;
20379;SDS011;10349;48.666;8.948;2023-08-31T13:25:50;1.80;;;1.70;;
20379;SDS011;10349;48.666;8.948;2023-08-31T13:28:17;5.33;;;1.87;;
20379;SDS011;10349;48.666;8.948;2023-08-31T13:30:44;3.27;;;2.00;;
20379;SDS011;10349;48.666;8.948;2023-08-31T13:33:10;2.60;;;1.93;;
20379;SDS011;10349;48.666;8.948;2023-08-31T13:35:36;2.03;;;1.90;;
20379;SDS011;10349;48.666;8.948;2023-08-31T13:38:02;3.00;;;2.00;;
20379;SDS011;10349;48.666;8.948;2023-08-31T13:40:28;1.80;;;1.60;;
20379;SDS011;10349;48.666;8.948;2023-08-31T13:42:59;2.30;;;1.70;;
20379;SDS011;10349;48.666;8.948;2023-08-31T13:45:29;4.30;;;2.03;;
20379;SDS011;10349;48.666;8.948;2023-08-31T13:47:56;1.90;;;1.80;;
20379;SDS011;10349;48.666;8.948;2023-08-31T13:50:24;2.47;;;2.13;;
20379;SDS011;10349;48.666;8.948;2023-08-31T13:52:51;5.10;;;2.00;;
20379;SDS011;10349;48.666;8.948;2023-08-31T13:55:17;2.80;;;1.90;;
20379;SDS011;10349;48.666;8.948;2023-08-31T13:57:42;2.00;;;1.90;;
20379;SDS011;10349;48.666;8.948;2023-08-31T14:00:11;6.53;;;2.20;;
20379;SDS011;10349;48.666;8.948;2023-08-31T14:02:38;1.57;;;1.47;;
20379;SDS011;10349;48.666;8.948;2023-08-31T14:05:05;2.80;;;1.50;;
20379;SDS011;10349;48.666;8.948;2023-08-31T14:07:32;4.47;;;1.80;;
20379;SDS011;10349;48.666;8.948;2023-08-31T14:09:59;6.50;;;2.10;;
20379;SDS011;10349;48.666;8.948;2023-08-31T14:12:30;2.40;;;2.00;;
20379;SDS011;10349;48.666;8.948;2023-08-31T14:14:57;4.60;;;1.47;;
20379;SDS011;10349;48.666;8.948;2023-08-31T14:17:24;3.40;;;1.53;;
20379;SDS011;10349;48.666;8.948;2023-08-31T14:19:50;2.53;;;1.90;;
20379;SDS011;10349;48.666;8.948;2023-08-31T14:22:15;4.63;;;1.87;;
20379;SDS011;10349;48.666;8.948;2023-08-31T14:24:41;2.00;;;1.90;;
20379;SDS011;10349;48.666;8.948;2023-08-31T14:27:07;2.73;;;1.83;;
20379;SDS011;10349;48.666;8.948;2023-08-31T14:29:33;2.13;;;1.97;;
20379;SDS011;10349;48.666;8.948;2023-08-31T14:32:00;2.37;;;1.60;;
20379;SDS011;10349;48.666;8.948;2023-08-31T14:34:27;2.50;;;2.13;;
20379;SDS011;10349;48.666;8.948;2023-08-31T14:36:53;1.63;;;1.53;;
20379;SDS011;10349;48.666;8.948;2023-08-31T14:39:22;2.70;;;2.13;;
20379;SDS011;10349;48.666;8.948;2023-08-31T14:41:50;3.10;;;2.10;;
20379;SDS011;10349;48.666;8.948;2023-08-31T14:44:15;2.03;;;1.73;;
20379;SDS011;10349;48.666;8.948;2023-08-31T14:46:41;2.33;;;2.13;;
20379;SDS011;10349;48.666;8.948;2023-08-31T14:49:06;3.00;;;2.13;;
20379;SDS011;10349;48.666;8.948;2023-08-31T14:51:32;2.67;;;1.90;;
20379;SDS011;10349;48.666;8.948;2023-08-31T14:53:58;7.70;;;2.53;;
20379;SDS011;10349;48.666;8.948;2023-08-31T14:56:24;2.27;;;2.07;;
20379;SDS011;10349;48.666;8.948;2023-08-31T14:58:50;2.13;;;1.90;;
20379;SDS011;10349;48.666;8.948;2023-08-31T15:01:16;3.87;;;2.00;;
20379;SDS011;10349;48.666;8.948;2023-08-31T15:03:41;4.87;;;2.30;;